Time;durP1;ratioP1;P1;durP2;ratioP2;P2;SDS_P1;SDS_P2;PMS_P1;PMS_P2;Temp;Humidity;BMP_temperature;BMP_pressure;BME280_temperature;BME280_humidity;BME280_pressure;Samples;Min_cycle;Max_cycle;Signal;HPM_P1;HPM_P2
2021/06/12 00:02:16;;;;;;;10.63;5.70;;;17.40;99.90;;;;;;5073882;28;20213;-55
2021/06/12 00:04:42;;;;;;;6.30;5.70;;;17.40;99.90;;;;;;5074137;28;20174;-56
2021/06/12 00:07:07;;;;;;;7.60;5.30;;;17.40;99.90;;;;;;5073859;28;20550;-58
2021/06/12 00:09:33;;;;;;;5.90;5.40;;;17.40;99.90;;;;;;5074295;28;20186;-59
2021/06/12 00:11:58;;;;;;;6.83;5.57;;;17.40;99.90;;;;;;5073686;28;20179;-57
2021/06/12 00:14:24;;;;;;;5.67;5.20;;;17.40;99.90;;;;;;5074085;28;20228;-57
2021/06/12 00:16:49;;;;;;;5.90;5.33;;;17.40;99.90;;;;;;5073676;28;20194;-55
2021/06/12 00:19:15;;;;;;;6.23;5.27;;;17.40;99.90;;;;;;5073868;28;20210;-58
2021/06/12 00:21:41;;;;;;;6.00;5.47;;;17.40;99.90;;;;;;5073923;28;20236;-59
2021/06/12 00:24:09;;;;;;;6.23;5.67;;;17.40;99.90;;;;;;5073963;28;20176;-58
2021/06/12 00:26:36;;;;;;;6.17;5.30;;;17.30;99.90;;;;;;5073967;28;20554;-59
2021/06/12 00:29:02;;;;;;;5.83;5.33;;;17.40;99.90;;;;;;5074072;28;20183;-56
2021/06/12 00:31:28;;;;;;;6.33;5.60;;;17.30;99.90;;;;;;5073795;28;20273;-58
2021/06/12 00:33:54;;;;;;;8.77;5.50;;;17.30;99.90;;;;;;5073804;28;20205;-59
2021/06/12 00:36:20;;;;;;;5.70;5.10;;;17.30;99.90;;;;;;5073655;28;20231;-59
2021/06/12 00:38:46;;;;;;;5.83;5.13;;;17.30;99.90;;;;;;5073689;28;20293;-56
2021/06/12 00:41:12;;;;;;;6.27;5.40;;;17.30;99.90;;;;;;5073692;28;20175;-60
2021/06/12 00:43:40;;;;;;;5.70;5.10;;;17.30;99.90;;;;;;5073669;28;20535;-57
2021/06/12 00:46:06;;;;;;;5.60;5.10;;;17.20;99.90;;;;;;5074041;28;20175;-55
2021/06/12 00:48:31;;;;;;;5.53;5.03;;;17.10;99.90;;;;;;5074245;28;20171;-58
2021/06/12 00:50:57;;;;;;;5.60;5.13;;;17.10;99.90;;;;;;5073358;28;20186;-56
2021/06/12 00:53:37;;;;;;;5.80;5.30;;;17.10;99.90;;;;;;5073811;28;20177;-58
2021/06/12 00:56:07;;;;;;;5.90;5.40;;;17.10;99.90;;;;;;5073897;28;20184;-59
2021/06/12 00:58:35;;;;;;;5.80;5.30;;;17.10;99.90;;;;;;5073822;28;20202;-56
2021/06/12 01:01:00;;;;;;;5.50;5.00;;;17.10;99.90;;;;;;5073226;28;20266;-59
2021/06/12 01:03:28;;;;;;;6.20;5.60;;;17.10;99.90;;;;;;5073498;28;20202;-59
2021/06/12 01:05:55;;;;;;;7.57;5.73;;;17.10;99.90;;;;;;5073622;28;20178;-58
2021/06/12 01:08:21;;;;;;;5.90;5.40;;;17.00;99.90;;;;;;5073375;28;20550;-59
2021/06/12 01:10:46;;;;;;;5.30;4.90;;;16.90;99.90;;;;;;5073601;28;20715;-59
2021/06/12 01:13:27;;;;;;;5.93;5.43;;;16.90;99.90;;;;;;5073312;28;20581;-58
2021/06/12 01:16:05;;;;;;;5.90;5.40;;;16.90;99.90;;;;;;5073888;28;20178;-57
2021/06/12 01:18:33;;;;;;;5.43;4.80;;;16.90;99.90;;;;;;5073722;28;20214;-58
2021/06/12 01:21:19;;;;;;;5.60;5.13;;;16.90;99.90;;;;;;5073203;28;20171;-58
2021/06/12 01:24:12;;;;;;;5.83;5.33;;;16.90;99.90;;;;;;5073851;28;20473;-55
2021/06/12 01:27:02;;;;;;;5.87;5.37;;;16.90;99.90;;;;;;5073227;28;20558;-59
2021/06/12 01:29:52;;;;;;;6.40;5.90;;;16.80;99.90;;;;;;5073219;28;20178;-59
2021/06/12 01:32:20;;;;;;;8.60;7.80;;;16.90;99.90;;;;;;5073042;28;20301;-58
2021/06/12 01:34:47;;;;;;;8.97;8.17;;;16.80;99.90;;;;;;5073021;28;20174;-60
2021/06/12 01:37:14;;;;;;;9.50;8.70;;;16.90;99.90;;;;;;5073129;28;20249;-58
2021/06/12 01:39:40;;;;;;;8.80;8.00;;;16.90;99.90;;;;;;5073397;28;20186;-57
2021/06/12 01:42:08;;;;;;;8.10;7.40;;;17.00;99.90;;;;;;5054659;28;20175;-58
2021/06/12 01:44:36;;;;;;;7.50;6.90;;;16.90;99.90;;;;;;5053325;28;20167;-58
2021/06/12 01:47:03;;;;;;;7.73;7.13;;;16.90;99.90;;;;;;5056427;28;20195;-54
2021/06/12 01:49:31;;;;;;;8.37;7.30;;;16.90;99.90;;;;;;5057119;28;20183;-59
2021/06/12 01:51:58;;;;;;;7.90;7.20;;;16.90;99.90;;;;;;5056485;28;20176;-58
2021/06/12 01:54:26;;;;;;;7.47;6.40;;;16.80;99.90;;;;;;5056586;28;20178;-55
2021/06/12 01:56:53;;;;;;;6.67;6.07;;;16.80;99.90;;;;;;5056835;28;20258;-57
2021/06/12 01:59:19;;;;;;;6.20;5.60;;;16.80;99.90;;;;;;5056392;28;20293;-55
2021/06/12 02:01:49;;;;;;;5.87;5.37;;;16.80;99.90;;;;;;5056487;28;20168;-58
2021/06/12 02:04:17;;;;;;;6.13;5.63;;;16.80;99.90;;;;;;5056571;28;20192;-55
2021/06/12 02:06:44;;;;;;;8.43;5.57;;;16.90;99.90;;;;;;5056258;28;20635;-59
2021/06/12 02:09:11;;;;;;;6.50;6.00;;;16.90;99.90;;;;;;5056776;28;20171;-59
2021/06/12 02:11:37;;;;;;;9.13;5.40;;;16.90;99.90;;;;;;5056381;28;20606;-56
2021/06/12 02:14:03;;;;;;;5.90;5.30;;;16.90;99.90;;;;;;5056196;28;20176;-59
2021/06/12 02:16:29;;;;;;;7.73;6.13;;;16.90;99.90;;;;;;5071433;28;20198;-56
2021/06/12 02:18:56;;;;;;;6.73;6.13;;;16.90;99.90;;;;;;5056202;28;20214;-56
2021/06/12 02:21:22;;;;;;;7.03;5.70;;;16.90;99.90;;;;;;5055915;28;20164;-60
2021/06/12 02:23:53;;;;;;;6.10;5.40;;;16.90;99.90;;;;;;5056484;28;20206;-58
2021/06/12 02:26:24;;;;;;;5.70;5.20;;;16.80;99.90;;;;;;5056350;28;20167;-59
2021/06/12 02:28:50;;;;;;;5.77;5.27;;;16.80;99.90;;;;;;5056552;28;20258;-56
2021/06/12 02:31:19;;;;;;;5.33;4.83;;;16.80;99.90;;;;;;5055824;28;20677;-59
2021/06/12 02:33:46;;;;;;;5.63;5.13;;;16.90;99.90;;;;;;5055829;28;20346;-57
2021/06/12 02:36:13;;;;;;;5.97;5.23;;;16.90;99.90;;;;;;5055963;28;20179;-59
2021/06/12 02:38:38;;;;;;;6.00;5.30;;;16.90;99.90;;;;;;5055741;28;20203;-55
2021/06/12 02:41:04;;;;;;;6.37;5.50;;;16.90;99.90;;;;;;5055560;28;20222;-59
2021/06/12 02:43:30;;;;;;;5.77;5.10;;;16.90;99.90;;;;;;5055652;28;20175;-59
2021/06/12 02:45:56;;;;;;;8.40;5.20;;;16.80;99.90;;;;;;5055582;28;20190;-59
2021/06/12 02:48:27;;;;;;;6.57;5.27;;;16.70;99.90;;;;;;5055403;28;20202;-57
2021/06/12 02:50:53;;;;;;;6.17;5.67;;;16.60;99.90;;;;;;5055928;28;20182;-61
2021/06/12 02:53:24;;;;;;;6.77;5.87;;;16.70;99.90;;;;;;5055721;28;20175;-59
2021/06/12 02:55:53;;;;;;;6.47;5.63;;;16.70;99.90;;;;;;5055835;28;20164;-60
2021/06/12 02:58:23;;;;;;;7.57;5.77;;;16.80;99.90;;;;;;5055515;28;20222;-55
2021/06/12 03:00:50;;;;;;;6.90;6.20;;;16.90;99.90;;;;;;5055424;28;20190;-59
2021/06/12 03:03:16;;;;;;;7.27;6.57;;;16.80;99.90;;;;;;5055155;28;20563;-60
2021/06/12 03:05:47;;;;;;;6.80;6.23;;;16.70;99.90;;;;;;5055867;28;20175;-60
2021/06/12 03:08:17;;;;;;;5.90;5.40;;;16.70;99.90;;;;;;5055738;28;20198;-58
2021/06/12 03:10:44;;;;;;;5.40;5.00;;;16.80;99.90;;;;;;5056124;28;20186;-59
2021/06/12 03:13:13;;;;;;;6.33;5.73;;;16.70;99.90;;;;;;5055358;28;20175;-60
2021/06/12 03:15:43;;;;;;;5.50;5.00;;;16.80;99.90;;;;;;5055216;28;20656;-59
2021/06/12 03:18:09;;;;;;;5.97;5.47;;;16.80;99.90;;;;;;5054841;28;20211;-59
2021/06/12 03:20:36;;;;;;;6.03;5.43;;;16.80;99.90;;;;;;5055592;28;20170;-59
2021/06/12 03:23:04;;;;;;;8.73;5.60;;;16.90;99.90;;;;;;5054647;28;20226;-59
2021/06/12 03:25:30;;;;;;;7.47;6.17;;;16.90;99.90;;;;;;5054951;28;20163;-57
2021/06/12 03:27:56;;;;;;;6.70;6.07;;;16.90;99.90;;;;;;5055062;28;20497;-59
2021/06/12 03:30:23;;;;;;;7.50;6.80;;;16.80;99.90;;;;;;5054855;28;20203;-58
2021/06/12 03:32:49;;;;;;;7.50;6.80;;;16.80;99.90;;;;;;5054683;28;20241;-60
2021/06/12 03:35:16;;;;;;;6.90;6.30;;;16.80;99.90;;;;;;5054675;28;20597;-57
2021/06/12 03:37:42;;;;;;;8.97;6.97;;;16.70;99.90;;;;;;5054432;28;20210;-60
2021/06/12 03:40:09;;;;;;;6.63;6.03;;;16.80;99.90;;;;;;5054542;28;20172;-59
2021/06/12 03:42:39;;;;;;;6.83;6.17;;;16.80;99.90;;;;;;5055022;28;20193;-58
2021/06/12 03:45:09;;;;;;;6.70;6.10;;;16.90;99.90;;;;;;5054493;28;20535;-59
2021/06/12 03:47:36;;;;;;;6.83;6.23;;;16.90;99.90;;;;;;5054280;28;20286;-55
2021/06/12 03:50:04;;;;;;;6.60;6.00;;;16.90;99.90;;;;;;5054308;28;20160;-60
2021/06/12 03:52:32;;;;;;;6.50;5.90;;;16.80;99.90;;;;;;5054746;28;20179;-58
2021/06/12 03:54:58;;;;;;;6.67;6.07;;;16.90;99.90;;;;;;5054597;28;20248;-59
2021/06/12 03:57:24;;;;;;;6.63;6.03;;;16.80;99.90;;;;;;5054525;28;20195;-60
2021/06/12 03:59:52;;;;;;;6.80;6.20;;;16.90;99.90;;;;;;5054718;28;20163;-53
2021/06/12 04:02:18;;;;;;;7.90;7.20;;;17.00;99.90;;;;;;5053935;28;20179;-55
2021/06/12 04:04:46;;;;;;;7.93;7.13;;;16.90;99.90;;;;;;5054756;28;20163;-56
2021/06/12 04:07:12;;;;;;;7.90;7.20;;;16.90;99.90;;;;;;5054091;28;20188;-60
2021/06/12 04:09:38;;;;;;;10.03;9.10;;;16.90;99.90;;;;;;5053612;28;20176;-57
2021/06/12 04:12:03;;;;;;;10.50;9.50;;;17.00;99.90;;;;;;5053843;28;20186;-58
2021/06/12 04:14:29;;;;;;;8.90;7.80;;;17.00;99.90;;;;;;5054001;28;20167;-55
2021/06/12 04:16:55;;;;;;;8.00;7.20;;;17.00;99.90;;;;;;5054141;28;20190;-59
2021/06/12 04:19:20;;;;;;;7.90;7.20;;;17.00;99.90;;;;;;5053843;28;20237;-60
2021/06/12 04:21:48;;;;;;;7.40;6.80;;;17.00;99.90;;;;;;5053818;28;20178;-58
2021/06/12 04:24:14;;;;;;;7.90;7.20;;;17.10;99.90;;;;;;5054064;28;20175;-60
2021/06/12 04:26:40;;;;;;;8.40;7.60;;;17.20;99.90;;;;;;5054354;28;20194;-55
2021/06/12 04:29:05;;;;;;;8.80;8.00;;;17.20;99.90;;;;;;5054344;28;20254;-58
2021/06/12 04:31:31;;;;;;;8.77;7.97;;;17.30;99.90;;;;;;5053968;28;20203;-55
2021/06/12 04:33:56;;;;;;;9.00;7.60;;;17.30;99.90;;;;;;5053706;28;20704;-60
2021/06/12 04:36:22;;;;;;;8.00;7.20;;;17.40;99.90;;;;;;5054100;28;20222;-59
2021/06/12 04:38:47;;;;;;;7.70;7.00;;;17.50;99.90;;;;;;5053897;28;20215;-57
2021/06/12 04:41:13;;;;;;;7.93;7.13;;;17.60;99.90;;;;;;5053829;28;20174;-60
2021/06/12 04:43:38;;;;;;;7.40;6.70;;;17.60;99.90;;;;;;5054173;28;20258;-56
2021/06/12 04:46:04;;;;;;;8.00;6.30;;;17.70;99.90;;;;;;5054394;28;20176;-60
2021/06/12 04:48:30;;;;;;;6.80;6.13;;;17.80;99.90;;;;;;5053687;28;20193;-56
2021/06/12 04:50:55;;;;;;;7.27;6.20;;;17.90;99.90;;;;;;5053414;28;20172;-59
2021/06/12 04:53:21;;;;;;;5.63;5.13;;;17.90;99.90;;;;;;5053908;28;20180;-57
2021/06/12 04:55:46;;;;;;;7.43;5.70;;;18.00;99.90;;;;;;5053587;28;20563;-58
2021/06/12 04:58:12;;;;;;;6.80;5.73;;;18.00;99.90;;;;;;5053419;28;20203;-60
2021/06/12 05:00:39;;;;;;;6.77;6.07;;;18.10;99.90;;;;;;5053676;28;20663;-55
2021/06/12 05:03:06;;;;;;;8.33;6.40;;;18.00;99.90;;;;;;5053354;28;20219;-54
2021/06/12 05:05:32;;;;;;;7.00;6.40;;;18.00;99.90;;;;;;5053720;28;20697;-56
2021/06/12 05:07:58;;;;;;;8.03;7.23;;;18.00;99.90;;;;;;5053337;28;20667;-60
2021/06/12 05:10:24;;;;;;;7.50;6.80;;;17.90;99.90;;;;;;5053920;28;20177;-58
2021/06/12 05:12:49;;;;;;;6.83;6.13;;;17.80;99.90;;;;;;5053799;28;20208;-58
2021/06/12 05:15:15;;;;;;;6.40;5.80;;;17.60;99.90;;;;;;5054113;28;20175;-59
2021/06/12 05:17:42;;;;;;;6.90;6.20;;;17.50;99.90;;;;;;5053021;28;20261;-58
2021/06/12 05:20:10;;;;;;;8.90;6.50;;;17.50;99.90;;;;;;5053904;28;20570;-57
2021/06/12 05:22:36;;;;;;;7.30;6.50;;;17.50;99.90;;;;;;5056936;28;20190;-57
2021/06/12 05:25:02;;;;;;;8.33;6.97;;;17.60;99.90;;;;;;5057208;28;20625;-58
2021/06/12 05:27:28;;;;;;;8.33;6.53;;;17.60;99.90;;;;;;5057167;28;20538;-58
2021/06/12 05:29:53;;;;;;;8.47;6.60;;;17.70;99.90;;;;;;5057291;28;20173;-60
2021/06/12 05:32:19;;;;;;;7.33;6.63;;;17.70;99.90;;;;;;5057210;28;20639;-59
2021/06/12 05:34:45;;;;;;;6.97;6.27;;;17.60;99.90;;;;;;5057032;28;20630;-57
2021/06/12 05:37:11;;;;;;;7.33;6.33;;;17.80;99.90;;;;;;5056693;28;20319;-55
2021/06/12 05:39:37;;;;;;;7.30;6.03;;;17.90;99.90;;;;;;5057054;28;20209;-56
2021/06/12 05:42:03;;;;;;;5.87;5.37;;;18.00;99.90;;;;;;5056578;28;20230;-60
2021/06/12 05:44:29;;;;;;;6.67;6.10;;;18.30;99.90;;;;;;5057316;28;20634;-59
2021/06/12 05:46:54;;;;;;;6.60;6.00;;;18.60;99.90;;;;;;5056535;28;20192;-58
2021/06/12 05:49:20;;;;;;;6.87;6.20;;;18.80;99.90;;;;;;5056874;28;20180;-60
2021/06/12 05:51:47;;;;;;;7.10;6.47;;;19.00;99.90;;;;;;5056915;28;20175;-59
2021/06/12 05:54:12;;;;;;;6.67;5.97;;;19.30;99.90;;;;;;5057225;28;20183;-58
2021/06/12 05:56:38;;;;;;;7.73;6.03;;;19.50;99.90;;;;;;5056822;28;20202;-59
2021/06/12 05:59:04;;;;;;;6.73;6.17;;;19.50;99.90;;;;;;5056504;28;20260;-60
2021/06/12 06:01:30;;;;;;;9.43;7.83;;;19.50;99.90;;;;;;5056569;28;20182;-57
2021/06/12 06:03:55;;;;;;;7.47;6.77;;;19.50;99.90;;;;;;5056881;28;20174;-60
2021/06/12 06:06:21;;;;;;;7.10;6.40;;;19.50;99.90;;;;;;5056863;28;20171;-60
2021/06/12 06:08:47;;;;;;;6.73;6.13;;;19.50;99.90;;;;;;5056973;28;20202;-57
2021/06/12 06:11:12;;;;;;;7.83;6.83;;;19.50;99.90;;;;;;5056468;28;20301;-57
2021/06/12 06:13:39;;;;;;;7.93;7.23;;;19.50;99.90;;;;;;5061815;28;20527;-59
2021/06/12 06:16:06;;;;;;;7.63;7.03;;;19.50;99.90;;;;;;5076270;28;20166;-57
2021/06/12 06:18:31;;;;;;;10.03;9.13;;;19.50;99.90;;;;;;5077091;28;20213;-58
2021/06/12 06:20:57;;;;;;;9.30;7.57;;;19.50;99.90;;;;;;5076480;28;20167;-59
2021/06/12 06:23:22;;;;;;;12.43;8.53;;;19.50;99.90;;;;;;5076659;28;20172;-60
2021/06/12 06:25:48;;;;;;;8.53;7.73;;;19.50;99.90;;;;;;5076226;28;20634;-59
2021/06/12 06:28:13;;;;;;;10.00;9.07;;;19.50;99.90;;;;;;5076711;28;20312;-60
2021/06/12 06:30:39;;;;;;;10.43;9.53;;;19.50;99.90;;;;;;5075806;28;20197;-59
2021/06/12 06:33:05;;;;;;;10.77;9.87;;;19.40;99.90;;;;;;5075816;28;20167;-60
2021/06/12 06:35:31;;;;;;;11.43;10.33;;;19.40;99.90;;;;;;5075762;28;20206;-57
2021/06/12 06:37:56;;;;;;;10.60;9.60;;;19.40;99.90;;;;;;5075891;28;20206;-59
2021/06/12 06:40:22;;;;;;;11.57;10.50;;;19.50;99.90;;;;;;5076332;28;20182;-58
2021/06/12 06:42:47;;;;;;;11.77;10.57;;;19.60;99.90;;;;;;5075479;28;20171;-54
2021/06/12 06:45:13;;;;;;;10.10;9.30;;;19.70;99.90;;;;;;5076460;28;20166;-58
2021/06/12 06:47:39;;;;;;;10.80;9.70;;;19.80;99.90;;;;;;5075473;28;20186;-58
2021/06/12 06:50:08;;;;;;;11.23;10.23;;;19.90;99.90;;;;;;5075677;28;20188;-59
2021/06/12 06:52:35;;;;;;;10.40;9.50;;;20.00;99.90;;;;;;5075363;28;20654;-56
2021/06/12 06:55:01;;;;;;;9.30;8.40;;;20.00;99.90;;;;;;5075535;28;20177;-57
2021/06/12 06:57:27;;;;;;;10.50;9.60;;;20.30;99.90;;;;;;5075399;28;20187;-59
2021/06/12 06:59:52;;;;;;;9.70;8.90;;;20.30;99.90;;;;;;5075850;28;20515;-55
2021/06/12 07:02:18;;;;;;;9.90;8.97;;;20.20;99.90;;;;;;5075356;28;20174;-55
2021/06/12 07:04:43;;;;;;;10.67;9.77;;;20.30;99.90;;;;;;5075685;28;20230;-58
2021/06/12 07:07:09;;;;;;;9.33;8.53;;;20.30;99.90;;;;;;5075591;28;20198;-59
2021/06/12 07:09:35;;;;;;;10.70;9.70;;;20.40;99.90;;;;;;5075100;28;20182;-58
2021/06/12 07:12:02;;;;;;;10.83;9.80;;;20.30;99.90;;;;;;5078096;28;20644;-58
2021/06/12 07:14:29;;;;;;;10.60;9.70;;;20.40;99.90;;;;;;5077850;28;20261;-63
2021/06/12 07:17:01;;;;;;;10.60;9.63;;;20.40;99.90;;;;;;5076961;28;20240;-60
2021/06/12 07:19:26;;;;;;;11.80;10.60;;;20.40;99.90;;;;;;5079153;28;20209;-59
2021/06/12 07:21:52;;;;;;;11.00;10.10;;;20.60;99.90;;;;;;5079873;28;20174;-62
2021/06/12 07:24:18;;;;;;;12.23;11.13;;;20.60;99.90;;;;;;5074704;28;20630;-58
2021/06/12 07:26:43;;;;;;;11.30;10.20;;;20.60;99.90;;;;;;5074452;28;20190;-59
2021/06/12 07:29:12;;;;;;;11.53;10.50;;;20.60;99.90;;;;;;5074843;28;20233;-59
2021/06/12 07:31:39;;;;;;;10.83;9.83;;;20.50;99.90;;;;;;5074084;28;20534;-59
2021/06/12 07:34:05;;;;;;;11.63;10.63;;;20.60;99.90;;;;;;5074450;28;20182;-62
2021/06/12 07:36:31;;;;;;;12.33;11.13;;;20.60;99.90;;;;;;5074315;28;20194;-58
2021/06/12 07:38:57;;;;;;;10.53;9.43;;;20.70;99.90;;;;;;5074782;28;20210;-58
2021/06/12 07:41:22;;;;;;;9.73;8.83;;;20.80;99.90;;;;;;5074702;28;20607;-58
2021/06/12 07:43:48;;;;;;;10.68;9.77;;;21.00;99.90;;;;;;5073629;28;20170;-57
2021/06/12 07:46:14;;;;;;;10.98;10.07;;;21.10;99.90;;;;;;5074320;28;20170;-58
2021/06/12 07:48:39;;;;;;;11.15;10.25;;;21.10;99.90;;;;;;5074843;28;20176;-58
2021/06/12 07:51:06;;;;;;;10.40;9.50;;;21.20;99.90;;;;;;5074546;28;20178;-60
2021/06/12 07:53:32;;;;;;;11.13;10.23;;;21.40;99.90;;;;;;5074570;28;20192;-59
2021/06/12 07:55:58;;;;;;;10.40;9.50;;;21.30;99.90;;;;;;5074244;28;20630;-57
2021/06/12 07:58:24;;;;;;;10.40;9.50;;;21.30;99.90;;;;;;5074461;28;20206;-59
2021/06/12 08:00:49;;;;;;;10.25;9.35;;;21.40;99.90;;;;;;5074473;28;20589;-57
2021/06/12 08:03:15;;;;;;;10.95;9.95;;;21.50;99.90;;;;;;5074086;28;20172;-59
2021/06/12 08:05:40;;;;;;;10.88;9.88;;;21.50;99.90;;;;;;5074251;28;20182;-60
2021/06/12 08:08:06;;;;;;;11.00;9.98;;;21.60;99.90;;;;;;5074283;28;20657;-60
2021/06/12 08:10:32;;;;;;;10.50;9.50;;;21.60;99.90;;;;;;5073939;28;20174;-60
2021/06/12 08:12:57;;;;;;;10.35;9.40;;;21.70;99.90;;;;;;5074094;28;20515;-58
2021/06/12 08:15:23;;;;;;;12.95;9.45;;;21.90;99.90;;;;;;5074307;28;20256;-57
2021/06/12 08:17:49;;;;;;;11.30;10.20;;;22.10;99.90;;;;;;5073643;28;20722;-59
2021/06/12 08:20:15;;;;;;;12.60;11.55;;;22.20;99.90;;;;;;5073928;28;20251;-59
2021/06/12 08:22:41;;;;;;;9.40;8.60;;;22.20;99.90;;;;;;5073851;28;20177;-60
2021/06/12 08:25:09;;;;;;;11.55;10.60;;;22.30;99.90;;;;;;5073685;28;20638;-60
2021/06/12 08:27:35;;;;;;;11.88;10.80;;;22.30;99.90;;;;;;5073995;28;20198;-58
2021/06/12 08:30:01;;;;;;;11.32;10.43;;;22.50;99.90;;;;;;5074100;28;20258;-56
2021/06/12 08:32:26;;;;;;;12.07;11.07;;;22.50;99.90;;;;;;5073958;28;20174;-58
2021/06/12 08:34:52;;;;;;;11.52;10.48;;;22.40;99.90;;;;;;5073743;28;20258;-59
2021/06/12 08:37:17;;;;;;;12.23;11.23;;;22.60;99.90;;;;;;5073788;28;20216;-59
2021/06/12 08:39:43;;;;;;;11.98;10.88;;;22.70;99.90;;;;;;5073613;28;20324;-57
2021/06/12 08:42:09;;;;;;;13.75;12.52;;;22.70;99.90;;;;;;5073646;28;20174;-60
2021/06/12 08:44:35;;;;;;;13.70;12.60;;;22.90;99.90;;;;;;5073896;28;20590;-60
2021/06/12 08:47:01;;;;;;;12.43;11.32;;;22.90;99.90;;;;;;5073458;28;20191;-59
2021/06/12 08:49:27;;;;;;;13.48;12.13;;;22.80;99.90;;;;;;5073845;28;20320;-60
2021/06/12 08:51:53;;;;;;;13.52;12.13;;;22.70;99.90;;;;;;5073447;28;20543;-61
2021/06/12 08:54:21;;;;;;;11.43;10.43;;;22.80;99.90;;;;;;5073881;28;20193;-61
2021/06/12 08:56:47;;;;;;;12.70;11.50;;;23.00;99.90;;;;;;5078113;28;20225;-60
2021/06/12 08:59:14;;;;;;;11.13;10.13;;;23.20;99.90;;;;;;5077844;28;20278;-58
2021/06/12 09:01:42;;;;;;;11.95;10.75;;;23.20;99.90;;;;;;5077342;28;20245;-59
2021/06/12 09:04:08;;;;;;;12.95;11.65;;;23.50;99.90;;;;;;5078103;28;20162;-59
2021/06/12 09:06:34;;;;;;;12.75;11.65;;;23.70;99.90;;;;;;5077712;28;20539;-58
2021/06/12 09:09:00;;;;;;;11.77;10.77;;;23.80;99.90;;;;;;5077600;28;20176;-59
2021/06/12 09:11:26;;;;;;;12.48;11.48;;;23.80;99.90;;;;;;5077384;28;20189;-58
2021/06/12 09:13:54;;;;;;;11.85;10.65;;;23.90;99.90;;;;;;5077438;28;20178;-58
2021/06/12 09:16:22;;;;;;;12.77;11.63;;;24.10;99.90;;;;;;5077352;28;20163;-60
2021/06/12 09:18:49;;;;;;;13.23;12.13;;;23.90;99.90;;;;;;5076997;28;20222;-58
2021/06/12 09:21:30;;;;;;;13.40;12.10;;;23.90;99.90;;;;;;5077253;28;20223;-59
2021/06/12 09:23:58;;;;;;;13.23;12.13;;;23.90;99.90;;;;;;5077262;28;20205;-60
2021/06/12 09:26:50;;;;;;;12.13;11.05;;;23.90;99.90;;;;;;5077442;28;20182;-58
2021/06/12 09:29:20;;;;;;;12.13;11.02;;;24.10;99.90;;;;;;5074856;28;20201;-60
2021/06/12 09:31:51;;;;;;;10.65;9.80;;;24.40;99.90;;;;;;5067637;28;20170;-60
2021/06/12 09:34:23;;;;;;;14.02;11.65;;;24.80;99.90;;;;;;5057469;28;20208;-56
2021/06/12 09:36:50;;;;;;;12.45;11.45;;;24.90;99.90;;;;;;5059456;28;20202;-59
2021/06/12 09:39:24;;;;;;;13.10;12.00;;;25.00;99.90;;;;;;5057011;28;20202;-60
2021/06/12 09:41:52;;;;;;;10.82;9.93;;;25.10;99.90;;;;;;5077319;28;20615;-60
2021/06/12 09:44:35;;;;;;;12.95;11.75;;;25.30;99.90;;;;;;5076581;28;20181;-61
2021/06/12 09:47:03;;;;;;;12.63;11.40;;;25.30;99.90;;;;;;5056966;28;20202;-61
2021/06/12 09:49:34;;;;;;;12.52;11.43;;;25.40;99.90;;;;;;5056887;28;20229;-60
2021/06/12 09:52:11;;;;;;;12.50;11.38;;;25.50;99.90;;;;;;5060583;28;20171;-61
2021/06/12 09:54:38;;;;;;;12.70;11.60;;;25.60;99.90;;;;;;5076212;28;20532;-55
2021/06/12 09:57:04;;;;;;;11.40;10.30;;;25.70;99.90;;;;;;5077059;28;20281;-60
2021/06/12 09:59:48;;;;;;;12.07;10.80;;;25.50;99.90;;;;;;5075980;28;20202;-61
2021/06/12 10:02:34;;;;;;;12.48;11.35;;;25.40;99.90;;;;;;5076241;28;20175;-60
2021/06/12 10:04:59;;;;;;;11.55;10.65;;;25.40;99.90;;;;;;5070911;28;20265;-60
2021/06/12 10:07:25;;;;;;;10.40;9.50;;;25.30;99.90;;;;;;5054584;28;20302;-61
2021/06/12 10:09:52;;;;;;;9.80;9.00;;;25.50;99.90;;;;;;5052806;28;20225;-61
2021/06/12 10:12:19;;;;;;;10.88;9.77;;;25.70;99.90;;;;;;5054064;28;20250;-60
2021/06/12 10:14:45;;;;;;;10.52;9.55;;;25.90;99.90;;;;;;5054390;28;20509;-60
2021/06/12 10:17:12;;;;;;;9.32;8.45;;;26.10;99.90;;;;;;5052590;28;20700;-58
2021/06/12 10:19:42;;;;;;;10.18;9.27;;;26.00;99.90;;;;;;5053897;28;20195;-61
2021/06/12 10:22:09;;;;;;;8.68;7.90;;;26.00;99.90;;;;;;5054113;28;20563;-60
2021/06/12 10:24:35;;;;;;;9.52;8.70;;;25.80;99.90;;;;;;5055798;28;20213;-60
2021/06/12 10:27:02;;;;;;;8.75;8.05;;;25.80;99.90;;;;;;5056396;28;20192;-60
2021/06/12 10:29:28;;;;;;;8.40;7.60;;;25.90;99.90;;;;;;5056207;28;20207;-60
2021/06/12 10:31:56;;;;;;;7.30;6.75;;;26.00;99.90;;;;;;5055885;28;20531;-61
2021/06/12 10:34:30;;;;;;;8.73;7.97;;;26.40;99.90;;;;;;5055572;28;20183;-61
2021/06/12 10:37:00;;;;;;;8.80;8.02;;;26.70;99.90;;;;;;5055715;28;20194;-61
2021/06/12 10:39:29;;;;;;;7.57;6.97;;;26.90;99.90;;;;;;5055326;28;20667;-58
2021/06/12 10:42:33;;;;;;;7.72;7.13;;;26.90;99.90;;;;;;5059452;28;20614;-59
2021/06/12 10:45:12;;;;;;;7.63;6.93;;;27.20;99.90;;;;;;5063173;28;20182;-59
2021/06/12 10:47:38;;;;;;;7.55;6.95;;;27.20;99.90;;;;;;5071574;28;20654;-60
2021/06/12 10:50:28;;;;;;;9.63;7.55;;;26.90;99.90;;;;;;5072849;28;20273;-60
2021/06/12 10:53:22;;;;;;;8.38;7.68;;;26.40;99.90;;;;;;5072563;28;20186;-61
2021/06/12 10:55:53;;;;;;;8.75;8.05;;;26.00;99.90;;;;;;5073570;28;20278;-61
2021/06/12 10:58:31;;;;;;;7.65;6.90;;;25.90;99.90;;;;;;5057446;28;20207;-60
2021/06/12 11:01:13;;;;;;;7.75;7.15;;;26.10;99.90;;;;;;5071243;28;20586;-61
2021/06/12 11:03:58;;;;;;;6.15;5.65;;;26.30;99.90;;;;;;5073391;28;20178;-61
2021/06/12 11:06:53;;;;;;;8.48;6.68;;;26.70;99.90;;;;;;5055360;28;20198;-61
2021/06/12 11:09:20;;;;;;;7.22;6.63;;;26.80;99.90;;;;;;5067106;28;20187;-62
2021/06/12 11:11:50;;;;;;;6.35;5.85;;;26.70;99.90;;;;;;5066631;28;20698;-61
2021/06/12 11:14:22;;;;;;;5.57;5.03;;;26.80;99.90;;;;;;5060677;28;20190;-61
2021/06/12 11:17:06;;;;;;;5.40;4.90;;;26.60;99.90;;;;;;5053999;28;20210;-60
2021/06/12 11:19:44;;;;;;;5.32;4.82;;;26.70;99.90;;;;;;5054179;28;20207;-62
2021/06/12 11:22:36;;;;;;;5.45;4.70;;;26.80;99.90;;;;;;5054699;28;20300;-60
2021/06/12 11:25:07;;;;;;;5.07;4.45;;;26.80;99.90;;;;;;5054034;28;20159;-61
2021/06/12 11:27:40;;;;;;;12.25;4.88;;;26.70;99.90;;;;;;5053831;28;20290;-62
2021/06/12 11:30:24;;;;;;;6.07;5.57;;;26.70;99.90;;;;;;5055026;28;20178;-62
2021/06/12 11:32:52;;;;;;;6.07;5.47;;;26.70;99.90;;;;;;5053786;28;20183;-61
2021/06/12 11:35:37;;;;;;;4.97;4.57;;;26.70;99.90;;;;;;5066472;28;20186;-58
2021/06/12 11:38:02;;;;;;;6.00;5.50;;;26.60;99.90;;;;;;5073886;28;20213;-60
2021/06/12 11:40:28;;;;;;;5.40;4.90;;;26.50;99.90;;;;;;5074100;28;20271;-58
2021/06/12 11:42:54;;;;;;;5.80;5.20;;;26.40;99.90;;;;;;5074361;28;20178;-58
2021/06/12 11:45:23;;;;;;;6.18;5.57;;;26.30;99.90;;;;;;5074681;28;20569;-59
2021/06/12 11:47:51;;;;;;;9.48;5.75;;;26.30;99.90;;;;;;5074007;28;20737;-58
2021/06/12 11:50:28;;;;;;;5.80;5.30;;;26.30;99.90;;;;;;5072885;28;20194;-59
2021/06/12 11:52:53;;;;;;;5.88;5.28;;;26.40;99.90;;;;;;5074290;28;20170;-60
2021/06/12 11:55:27;;;;;;;5.10;4.63;;;26.50;99.90;;;;;;5074768;28;20166;-59
2021/06/12 11:57:54;;;;;;;6.95;5.55;;;26.70;99.90;;;;;;5073506;28;20183;-61
2021/06/12 12:00:27;;;;;;;6.15;5.55;;;26.90;99.90;;;;;;5073268;28;20174;-60
2021/06/12 12:03:19;;;;;;;6.05;5.45;;;27.00;99.90;;;;;;5074331;28;20184;-60
2021/06/12 12:05:49;;;;;;;6.68;5.40;;;26.70;99.90;;;;;;5074020;28;20661;-61
2021/06/12 12:08:20;;;;;;;6.15;5.03;;;26.70;99.90;;;;;;5074395;28;20675;-59
2021/06/12 12:10:56;;;;;;;5.85;5.25;;;26.80;99.90;;;;;;5074403;28;20202;-58
2021/06/12 12:13:38;;;;;;;6.57;5.93;;;27.00;99.90;;;;;;5074510;28;20186;-57
2021/06/12 12:16:17;;;;;;;5.57;5.03;;;27.20;99.90;;;;;;5072634;28;20183;-57
2021/06/12 12:18:51;;;;;;;5.72;5.00;;;27.10;99.90;;;;;;5075692;28;20201;-59
2021/06/12 12:21:35;;;;;;;5.00;4.60;;;27.20;99.90;;;;;;5074056;28;20169;-62
2021/06/12 12:24:02;;;;;;;5.72;5.22;;;27.10;99.90;;;;;;5074042;28;20177;-59
2021/06/12 12:26:28;;;;;;;5.78;5.28;;;26.90;99.90;;;;;;5073647;28;20191;-61
2021/06/12 12:28:58;;;;;;;5.90;5.38;;;26.80;99.90;;;;;;5073432;28;20177;-60
2021/06/12 12:31:26;;;;;;;6.20;5.70;;;26.60;99.90;;;;;;5073718;28;20274;-58
2021/06/12 12:33:53;;;;;;;7.13;6.43;;;26.40;99.90;;;;;;5073640;28;20171;-58
2021/06/12 12:36:19;;;;;;;7.63;6.95;;;26.00;99.90;;;;;;5073613;28;20167;-58
2021/06/12 12:39:04;;;;;;;5.88;5.28;;;25.40;99.90;;;;;;5074003;28;20206;-58
2021/06/12 12:41:31;;;;;;;5.57;4.72;;;24.00;99.90;;;;;;5073850;28;20202;-55
2021/06/12 12:44:08;;;;;;;8.32;4.88;;;23.00;99.90;;;;;;5073801;28;20171;-58
2021/06/12 12:46:36;;;;;;;5.85;5.25;;;22.40;99.90;;;;;;5073778;28;20277;-58
2021/06/12 12:49:02;;;;;;;4.57;4.18;;;22.20;99.90;;;;;;5073565;28;20179;-55
2021/06/12 12:51:28;;;;;;;7.57;5.00;;;22.00;99.90;;;;;;5073562;28;20181;-54